^^
B2 Weather Station Historical Data
Daily Summary for May 25, 2018 Units:  English    Metric   Both
Daily Weekly Monthly Yearly Custom
  High: Low: Average:
Temperature: 92.6 °F 61.3 °F 76.6 °F
Dew Point: 67.8 °F 51.6 °F 60.3 °F
Humidity: 88% 34% 60%
Wind Speed: 24.2mph 0.0mph 3.9mph
Wind Gust: 24.2mph - -
Wind- - SSW
Pressure: 30.01 in 29.73 in -
Precipitation: 0.00 in    
Historical Graphs
 
 
Tabular Data for May 25, 2018
Time Temperature Dew Point Pressure Wind Wind Speed Wind Gust Humidity Rainfall Rate (Hourly) solar
00:02 66.8 °F 52.0 °F 30.01 in Calm     59% 0.00 in 0.0 W/m2
00:07 66.7 °F 51.9 °F 30.00 in Calm     59% 0.00 in 0.0 W/m2
00:12 66.5 °F 51.7 °F 30.01 in Calm     59% 0.00 in 0.0 W/m2
00:17 66.4 °F 51.6 °F 30.01 in Calm     59% 0.00 in 0.0 W/m2
00:22 66.3 °F 52.0 °F 30.01 in Calm     60% 0.00 in 0.0 W/m2
00:27 66.1 °F 51.8 °F 30.00 in Calm     60% 0.00 in 0.0 W/m2
00:32 65.9 °F 52.1 °F 30.01 in Calm     61% 0.00 in 0.0 W/m2
00:37 65.8 °F 52.0 °F 30.00 in Calm     61% 0.00 in 0.0 W/m2
00:42 65.8 °F 52.0 °F 30.00 in Calm     61% 0.00 in 0.0 W/m2
00:47 65.8 °F 52.0 °F 30.00 in Calm     61% 0.00 in 0.0 W/m2
00:52 65.9 °F 52.1 °F 30.00 in Calm     61% 0.00 in 0.0 W/m2
00:57 66.0 °F 52.6 °F 30.00 in Calm     62% 0.00 in 0.0 W/m2
01:02 65.8 °F 52.4 °F 30.00 in Calm     62% 0.00 in 0.0 W/m2
01:07 65.7 °F 52.3 °F 30.00 in Calm     62% 0.00 in 0.0 W/m2
01:12 65.6 °F 52.7 °F 30.00 in Calm     63% 0.00 in 0.0 W/m2
01:17 65.5 °F 52.6 °F 30.00 in Calm     63% 0.00 in 0.0 W/m2
01:22 65.1 °F 52.6 °F 29.99 in Calm     64% 0.00 in 0.0 W/m2
01:27 64.9 °F 52.4 °F 29.99 in Calm     64% 0.00 in 0.0 W/m2
01:32 64.7 °F 52.2 °F 29.99 in Calm     64% 0.00 in 0.0 W/m2
01:37 64.5 °F 52.5 °F 29.99 in Calm     65% 0.00 in 0.0 W/m2
01:42 64.2 °F 52.6 °F 29.99 in Calm     66% 0.00 in 0.0 W/m2
01:47 63.9 °F 53.1 °F 29.99 in Calm     68% 0.00 in 0.0 W/m2
01:52 63.4 °F 52.7 °F 29.99 in Calm     68% 0.00 in 0.0 W/m2
01:57 63.2 °F 52.5 °F 29.99 in Calm     68% 0.00 in 0.0 W/m2
02:02 62.9 °F 52.2 °F 29.99 in Calm     68% 0.00 in 0.0 W/m2
02:07 62.6 °F 52.7 °F 29.98 in Calm     70% 0.00 in 0.0 W/m2
02:12 62.4 °F 53.3 °F 29.98 in Calm     72% 0.00 in 0.0 W/m2
02:17 62.2 °F 53.4 °F 29.98 in Calm     73% 0.00 in 0.0 W/m2
02:22 62.1 °F 53.3 °F 29.98 in Calm     73% 0.00 in 0.0 W/m2
02:27 61.9 °F 53.1 °F 29.98 in Calm     73% 0.00 in 0.0 W/m2
02:32 61.9 °F 53.1 °F 29.98 in Calm     73% 0.00 in 0.0 W/m2
02:37 61.8 °F 53.1 °F 29.98 in Calm     73% 0.00 in 0.0 W/m2
02:42 61.9 °F 53.1 °F 29.98 in Calm     73% 0.00 in 0.0 W/m2
02:48 62.0 °F 53.2 °F 29.98 in Calm     73% 0.00 in 0.0 W/m2
02:53 62.1 °F 53.3 °F 29.98 in Calm     73% 0.00 in 0.0 W/m2
02:58 62.3 °F 53.5 °F 29.98 in Calm     73% 0.00 in 0.0 W/m2
03:03 62.4 °F 53.3 °F 29.98 in Calm     72% 0.00 in 0.0 W/m2
03:08 62.5 °F 53.3 °F 29.98 in Calm     72% 0.00 in 0.0 W/m2
03:13 62.5 °F 53.3 °F 29.98 in Calm     72% 0.00 in 0.0 W/m2
03:18 62.4 °F 54.0 °F 29.98 in Calm     74% 0.00 in 0.0 W/m2
03:23 62.3 °F 53.5 °F 29.98 in Calm     73% 0.00 in 0.0 W/m2
03:28 62.3 °F 53.9 °F 29.97 in Calm     74% 0.00 in 0.0 W/m2
03:33 62.2 °F 53.8 °F 29.98 in Calm     74% 0.00 in 0.0 W/m2
03:38 62.1 °F 54.1 °F 29.97 in Calm     75% 0.00 in 0.0 W/m2
03:43 61.8 °F 54.2 °F 29.97 in Calm     76% 0.00 in 0.0 W/m2
03:48 61.6 °F 54.0 °F 29.97 in Calm     76% 0.00 in 0.0 W/m2
03:53 61.6 °F 54.3 °F 29.97 in Calm     77% 0.00 in 0.0 W/m2
03:58 61.5 °F 54.2 °F 29.97 in Calm     77% 0.00 in 0.0 W/m2
04:03 61.3 °F 54.0 °F 29.96 in Calm     77% 0.00 in 0.0 W/m2
04:08 61.4 °F 54.1 °F 29.96 in Calm     77% 0.00 in 0.0 W/m2
04:13 61.4 °F 54.1 °F 29.96 in Calm     77% 0.00 in 0.0 W/m2
04:18 61.4 °F 54.1 °F 29.96 in Calm     77% 0.00 in 0.0 W/m2
04:23 61.5 °F 53.9 °F 29.96 in Calm     76% 0.00 in 0.0 W/m2
04:28 61.6 °F 54.0 °F 29.96 in Calm     76% 0.00 in 0.0 W/m2
04:33 61.7 °F 54.1 °F 29.96 in Calm     76% 0.00 in 0.0 W/m2
04:38 61.8 °F 54.2 °F 29.96 in Calm     76% 0.00 in 0.0 W/m2
04:43 61.9 °F 54.2 °F 29.96 in Calm     76% 0.00 in 0.0 W/m2
04:48 62.1 °F 54.4 °F 29.96 in Calm     76% 0.00 in 0.0 W/m2
04:53 62.3 °F 54.3 °F 29.96 in Calm     75% 0.00 in 0.0 W/m2
04:58 62.5 °F 54.5 °F 29.96 in Calm     75% 0.00 in 0.0 W/m2
05:03 62.6 °F 54.6 °F 29.96 in Calm     75% 0.00 in 0.0 W/m2
05:08 62.8 °F 54.8 °F 29.96 in Calm     75% 0.00 in 0.0 W/m2
05:13 62.8 °F 54.8 °F 29.95 in Calm     75% 0.00 in 0.0 W/m2
05:18 62.2 °F 54.5 °F 29.95 in Calm     76% 0.00 in 0.0 W/m2
05:23 61.9 °F 55.0 °F 29.95 in Calm     78% 0.00 in 0.0 W/m2
05:28 62.0 °F 55.1 °F 29.95 in Calm     78% 0.00 in 0.0 W/m2
05:33 62.1 °F 55.2 °F 29.95 in Calm     78% 0.00 in 5.0 W/m2
05:38 62.1 °F 54.8 °F 29.95 in Calm     77% 0.00 in 7.0 W/m2
05:43 62.0 °F 54.7 °F 29.94 in Calm     77% 0.00 in 11.0 W/m2
05:48 61.9 °F 55.0 °F 29.95 in Calm     78% 0.00 in 14.0 W/m2
05:53 61.8 °F 55.2 °F 29.95 in Calm     79% 0.00 in 18.0 W/m2
05:58 61.6 °F 55.4 °F 29.94 in Calm     80% 0.00 in 25.0 W/m2
06:03 61.6 °F 55.7 °F 29.94 in Calm     81% 0.00 in 30.0 W/m2
06:08 62.0 °F 56.4 °F 29.94 in Calm     82% 0.00 in 37.0 W/m2
06:13 62.3 °F 56.4 °F 29.94 in Calm     81% 0.00 in 44.0 W/m2
06:18 62.9 °F 57.0 °F 29.94 in Calm     81% 0.00 in 54.0 W/m2
06:23 63.4 °F 57.1 °F 29.94 in Calm     80% 0.00 in 65.0 W/m2
06:28 63.9 °F 57.3 °F 29.94 in Calm     79% 0.00 in 77.0 W/m2
06:29 64.0 °F 57.4 °F 29.94 in Calm     79% 0.00 in 79.0 W/m2
06:34 64.7 °F 57.7 °F 29.94 in Calm     78% 0.00 in 93.0 W/m2
06:39 65.3 °F 58.3 °F 29.94 in Calm     78% 0.00 in 111.0 W/m2
06:44 65.8 °F 58.4 °F 29.94 in Calm     77% 0.00 in 130.0 W/m2
06:49 66.3 °F 58.9 °F 29.94 in Calm   0.1 mph 77% 0.00 in 146.0 W/m2
06:54 66.9 °F 58.7 °F 29.94 in SSE 1.2 mph   75% 0.00 in 162.0 W/m2
06:59 67.5 °F 59.3 °F 29.94 in South 1.2 mph 1.2 mph 75% 0.00 in 179.0 W/m2
07:04 68.1 °F 59.9 °F 29.94 in SSE 1.2 mph 1.2 mph 75% 0.00 in 195.0 W/m2
07:09 68.6 °F 59.6 °F 29.94 in SSE 4.6 mph 4.6 mph 73% 0.00 in 213.0 W/m2
07:14 69.6 °F 59.8 °F 29.94 in South 3.5 mph 3.5 mph 71% 0.00 in 229.0 W/m2
07:19 70.4 °F 59.3 °F 29.94 in South 2.3 mph 2.3 mph 68% 0.00 in 244.0 W/m2
07:24 71.0 °F 59.5 °F 29.94 in SSW 4.6 mph   67% 0.00 in 258.0 W/m2
07:29 71.7 °F 59.7 °F 29.94 in South 4.6 mph 4.6 mph 66% 0.00 in 272.0 W/m2
07:34 72.1 °F 59.7 °F 29.93 in SW 3.5 mph 3.5 mph 65% 0.00 in 290.0 W/m2
07:39 72.6 °F 59.7 °F 29.93 in South 6.9 mph 6.9 mph 64% 0.00 in 304.0 W/m2
07:44 72.9 °F 59.6 °F 29.93 in SSW 3.5 mph 3.5 mph 63% 0.00 in 320.0 W/m2
07:49 73.4 °F 60.5 °F 29.93 in SSW 4.6 mph   64% 0.00 in 330.0 W/m2
07:54 73.9 °F 60.1 °F 29.93 in SW 6.9 mph 6.9 mph 62% 0.00 in 339.0 W/m2
07:59 74.3 °F 60.4 °F 29.93 in SSW 3.5 mph 3.5 mph 62% 0.00 in 339.0 W/m2
08:04 74.7 °F 60.4 °F 29.94 in North 7.0 mph 7.0 mph 61% 0.00 in 339.0 W/m2
08:09 75.2 °F 60.8 °F 29.93 in SSW 5.8 mph 5.8 mph 61% 0.00 in 327.0 W/m2
08:14 75.5 °F 60.6 °F 29.93 in SSW 5.8 mph 5.8 mph 60% 0.00 in 329.0 W/m2
08:19 75.9 °F 60.5 °F 29.93 in SSW 3.5 mph 3.5 mph 59% 0.00 in 345.0 W/m2
08:24 76.4 °F 61.0 °F 29.93 in SSW 3.5 mph 3.5 mph 59% 0.00 in 343.0 W/m2
08:29 76.9 °F 60.5 °F 29.94 in SSW 5.0 mph 5.0 mph 57% 0.00 in 323.0 W/m2
08:34 77.2 °F 60.8 °F 29.94 in South 4.6 mph 4.6 mph 57% 0.00 in 338.0 W/m2
08:39 77.6 °F 60.7 °F 29.93 in SSW 6.9 mph 6.9 mph 56% 0.00 in 383.0 W/m2
08:44 78.0 °F 61.0 °F 29.93 in SW 4.6 mph 4.6 mph 56% 0.00 in 425.0 W/m2
08:49 78.4 °F 61.4 °F 29.93 in SSW 3.5 mph   56% 0.00 in 454.0 W/m2
08:54 79.0 °F 61.5 °F 29.93 in SSW 3.5 mph 3.5 mph 55% 0.00 in 483.0 W/m2
08:59 79.5 °F 60.9 °F 29.93 in SSW 4.6 mph 4.6 mph 53% 0.00 in 515.0 W/m2
09:04 79.9 °F 61.8 °F 29.92 in SSW 4.0 mph 4.0 mph 54% 0.00 in 548.0 W/m2
09:09 80.6 °F 61.9 °F 29.92 in South 4.0 mph 4.0 mph 53% 0.00 in 573.0 W/m2
09:14 81.1 °F 62.3 °F 29.92 in SW 2.3 mph 2.3 mph 53% 0.00 in 585.0 W/m2
09:19 81.5 °F 62.2 °F 29.92 in SW 3.5 mph   52% 0.00 in 598.0 W/m2
09:24 82.0 °F 62.1 °F 29.92 in SW 3.5 mph 3.5 mph 51% 0.00 in 613.0 W/m2
09:29 82.2 °F 61.1 °F 29.91 in SSW 8.1 mph 8.1 mph 49% 0.00 in 626.0 W/m2
09:34 82.6 °F 62.1 °F 29.92 in WSW 3.5 mph 3.5 mph 50% 0.00 in 640.0 W/m2
09:39 82.9 °F 61.8 °F 29.92 in SW 4.6 mph 4.6 mph 49% 0.00 in 652.0 W/m2
09:44 83.2 °F 62.1 °F 29.91 in SSW 3.5 mph 3.5 mph 49% 0.00 in 664.0 W/m2
09:49 83.2 °F 61.5 °F 29.91 in WSW 6.9 mph 6.9 mph 48% 0.00 in 675.0 W/m2
09:54 83.5 °F 62.9 °F 29.91 in Calm     50% 0.00 in 686.0 W/m2
09:59 84.3 °F 62.5 °F 29.91 in SSW 2.0 mph 2.0 mph 48% 0.00 in 698.0 W/m2
10:04 84.7 °F 61.6 °F 29.91 in SSW 5.8 mph 5.8 mph 46% 0.00 in 708.0 W/m2
10:09 85.2 °F 62.1 °F 29.91 in SW 3.5 mph 3.5 mph 46% 0.00 in 719.0 W/m2
10:11 85.2 °F 60.8 °F 29.90 in North 2.3 mph 2.3 mph 44% 0.00 in 722.0 W/m2
10:16 85.3 °F 60.9 °F 29.90 in SW 5.8 mph 5.8 mph 44% 0.00 in 733.0 W/m2
10:21 85.2 °F 60.8 °F 29.90 in WSW 5.8 mph 5.8 mph 44% 0.00 in 740.0 W/m2
10:26 85.7 °F 63.1 °F 29.90 in SW 1.2 mph 1.2 mph 47% 0.00 in 747.0 W/m2
10:31 86.1 °F 63.5 °F 29.90 in SW 3.5 mph 3.5 mph 47% 0.00 in 756.0 W/m2
10:36 86.5 °F 61.3 °F 29.90 in SSW 3.5 mph 3.5 mph 43% 0.00 in 747.0 W/m2
10:41 86.5 °F 62.0 °F 29.89 in WSW 9.2 mph 9.2 mph 44% 0.00 in 737.0 W/m2
10:46 86.4 °F 61.3 °F 29.89 in SSW 4.6 mph 4.6 mph 43% 0.00 in 724.0 W/m2
10:51 86.7 °F 61.5 °F 29.89 in SSE 6.9 mph 6.9 mph 43% 0.00 in 703.0 W/m2
10:56 87.1 °F 62.5 °F 29.89 in SSE 3.5 mph 3.5 mph 44% 0.00 in 654.0 W/m2
11:01 87.4 °F 61.5 °F 29.89 in South 10.4 mph 10.4 mph 42% 0.00 in 654.0 W/m2
11:06 87.6 °F 61.7 °F 29.89 in SSW 4.6 mph 4.6 mph 42% 0.00 in 594.0 W/m2
11:11 87.7 °F 62.4 °F 29.89 in South 9.2 mph 9.2 mph 43% 0.00 in 647.0 W/m2
11:16 88.3 °F 63.0 °F 29.89 in SSW 8.1 mph 8.1 mph 43% 0.00 in 679.0 W/m2
11:21 88.5 °F 61.8 °F 29.89 in South 9.0 mph 9.0 mph 41% 0.00 in 708.0 W/m2
11:26 88.6 °F 61.9 °F 29.89 in WSW 8.1 mph 8.1 mph 41% 0.00 in 765.0 W/m2
11:31 88.3 °F 60.9 °F 29.89 in WSW 4.0 mph 4.0 mph 40% 0.00 in 812.0 W/m2
11:36 88.0 °F 61.3 °F 29.89 in WSW 4.6 mph 4.6 mph 41% 0.00 in 861.0 W/m2
11:41 88.1 °F 60.7 °F 29.89 in WSW 4.0 mph 4.0 mph 40% 0.00 in 919.0 W/m2
11:46 88.4 °F 61.7 °F 29.89 in WSW 2.3 mph 2.3 mph 41% 0.00 in 937.0 W/m2
11:51 88.5 °F 61.8 °F 29.88 in SSW 4.6 mph 4.6 mph 41% 0.00 in 921.0 W/m2
11:56 88.7 °F 62.0 °F 29.88 in WSW 9.2 mph 9.2 mph 41% 0.00 in 935.0 W/m2
12:01 88.8 °F 62.7 °F 29.88 in SSW 3.5 mph 3.5 mph 42% 0.00 in 956.0 W/m2
12:06 89.0 °F 62.9 °F 29.88 in South 6.9 mph 6.9 mph 42% 0.00 in 986.0 W/m2
12:11 89.4 °F 60.5 °F 29.88 in WSW 11.5 mph 11.5 mph 38% 0.00 in 965.0 W/m2
12:16 89.0 °F 60.1 °F 29.88 in SW 8.1 mph 8.1 mph 38% 0.00 in 963.0 W/m2
12:21 89.1 °F 63.0 °F 29.87 in SW 6.9 mph 6.9 mph 42% 0.00 in 951.0 W/m2
12:26 89.2 °F 62.4 °F 29.87 in Calm     41% 0.00 in 983.0 W/m2
12:31 89.3 °F 61.1 °F 29.87 in WSW 5.8 mph 5.8 mph 39% 0.00 in 288.0 W/m2
12:36 89.3 °F 60.4 °F 29.87 in North 11.5 mph 11.5 mph 38% 0.00 in 988.0 W/m2
12:41 89.5 °F 62.0 °F 29.86 in SSW 6.9 mph 6.9 mph 40% 0.00 in 969.0 W/m2
12:46 89.9 °F 62.3 °F 29.86 in WSW 6.9 mph 6.9 mph 40% 0.00 in 963.0 W/m2
12:51 90.0 °F 63.8 °F 29.86 in South 1.2 mph   42% 0.00 in 969.0 W/m2
12:56 90.4 °F 61.3 °F 29.85 in ESE 11.5 mph 11.5 mph 38% 0.00 in 970.0 W/m2
13:01 90.6 °F 60.8 °F 29.85 in SW 3.5 mph 3.5 mph 37% 0.00 in 963.0 W/m2
13:06 90.8 °F 60.9 °F 29.85 in WSW 6.0 mph 6.0 mph 37% 0.00 in 981.0 W/m2
13:11 91.2 °F 60.5 °F 29.85 in SE 8.1 mph 8.1 mph 36% 0.00 in 979.0 W/m2
13:16 91.0 °F 61.1 °F 29.84 in South 24.2 mph 24.2 mph 37% 0.00 in 995.0 W/m2
13:21 90.9 °F 62.5 °F 29.84 in SSW 4.6 mph 4.6 mph 39% 0.00 in 1005.0 W/m2
13:26 91.3 °F 62.1 °F 29.84 in Calm     38% 0.00 in 928.0 W/m2
13:31 91.7 °F 61.0 °F 29.83 in SSW 11.5 mph 11.5 mph 36% 0.00 in 963.0 W/m2
13:36 91.6 °F 61.6 °F 29.83 in SSE 10.4 mph 10.4 mph 37% 0.00 in 958.0 W/m2
13:41 91.3 °F 62.1 °F 29.83 in SSE 4.6 mph   38% 0.00 in 942.0 W/m2
13:46 91.6 °F 60.9 °F 29.83 in SSW 4.6 mph 4.6 mph 36% 0.00 in 946.0 W/m2
13:51 91.6 °F 60.9 °F 29.82 in SSW 9.2 mph 9.2 mph 36% 0.00 in 213.0 W/m2
13:56 90.4 °F 59.8 °F 29.83 in South 8.1 mph 8.1 mph 36% 0.00 in 218.0 W/m2
14:01 89.9 °F 60.9 °F 29.82 in SE 8.1 mph 8.1 mph 38% 0.00 in 951.0 W/m2
14:06 90.6 °F 60.8 °F 29.82 in SSE 9.2 mph 9.2 mph 37% 0.00 in 933.0 W/m2
14:07 90.7 °F 61.6 °F 29.82 in South 8.1 mph 8.1 mph 38% 0.00 in 933.0 W/m2
14:12 91.4 °F 60.7 °F 29.82 in SSE 8.1 mph 8.1 mph 36% 0.00 in 944.0 W/m2
14:17 91.8 °F 61.8 °F 29.81 in Calm     37% 0.00 in 970.0 W/m2
14:22 92.3 °F 59.9 °F 29.81 in South 4.6 mph 4.6 mph 34% 0.00 in 993.0 W/m2
14:27 92.6 °F 61.0 °F 29.81 in SSW 6.9 mph 6.9 mph 35% 0.00 in 925.0 W/m2
14:32 92.6 °F 60.1 °F 29.81 in South 10.4 mph 10.4 mph 34% 0.00 in 932.0 W/m2
14:37 91.6 °F 59.3 °F 29.81 in South 7.0 mph 7.0 mph 34% 0.00 in 207.0 W/m2
14:42 90.7 °F 59.3 °F 29.80 in South 4.6 mph 4.6 mph 35% 0.00 in 956.0 W/m2
14:47 90.2 °F 58.0 °F 29.80 in South 5.0 mph 5.0 mph 34% 0.00 in 202.0 W/m2
14:52 90.3 °F 58.1 °F 29.80 in Calm     34% 0.00 in 221.0 W/m2
14:57 90.0 °F 61.0 °F 29.79 in SE 6.0 mph 6.0 mph 38% 0.00 in 877.0 W/m2
15:02 90.4 °F 61.3 °F 29.79 in SE 9.2 mph 9.2 mph 38% 0.00 in 868.0 W/m2
15:07 91.0 °F 60.3 °F 29.79 in SSW 6.9 mph 6.9 mph 36% 0.00 in 865.0 W/m2
15:12 91.5 °F 60.0 °F 29.78 in South 11.5 mph 11.5 mph 35% 0.00 in 828.0 W/m2
15:17 91.3 °F 59.0 °F 29.78 in SSW 4.6 mph 4.6 mph 34% 0.00 in 223.0 W/m2
15:22 91.1 °F 59.6 °F 29.78 in SW 7.0 mph 7.0 mph 35% 0.00 in 715.0 W/m2
15:27 90.8 °F 59.4 °F 29.78 in SSW 3.5 mph 3.5 mph 35% 0.00 in 218.0 W/m2
15:32 90.3 °F 58.9 °F 29.78 in South 4.0 mph 4.0 mph 35% 0.00 in 271.0 W/m2
15:37 90.0 °F 60.2 °F 29.77 in SSE 6.0 mph 6.0 mph 37% 0.00 in 536.0 W/m2
15:42 89.7 °F 60.0 °F 29.77 in South 11.5 mph 11.5 mph 37% 0.00 in 227.0 W/m2
15:47 89.2 °F 60.3 °F 29.77 in SSE 5.8 mph 5.8 mph 38% 0.00 in 410.0 W/m2
15:52 89.3 °F 61.1 °F 29.76 in ESE 5.8 mph 5.8 mph 39% 0.00 in 445.0 W/m2
15:57 89.5 °F 60.5 °F 29.76 in SE 6.9 mph 6.9 mph 38% 0.00 in 408.0 W/m2
16:02 89.6 °F 60.6 °F 29.76 in SSE 12.0 mph 12.0 mph 38% 0.00 in 362.0 W/m2
16:07 89.7 °F 59.2 °F 29.76 in South 12.7 mph 12.7 mph 36% 0.00 in 364.0 W/m2
16:12 89.8 °F 60.1 °F 29.76 in SW 3.5 mph 3.5 mph 37% 0.00 in 378.0 W/m2
16:17 90.1 °F 59.5 °F 29.76 in SSE 9.2 mph 9.2 mph 36% 0.00 in 436.0 W/m2
16:22 90.0 °F 59.5 °F 29.76 in South 3.5 mph 3.5 mph 36% 0.00 in 322.0 W/m2
16:27 89.8 °F 60.1 °F 29.76 in SSE 5.8 mph 5.8 mph 37% 0.00 in 283.0 W/m2
16:32 89.2 °F 59.5 °F 29.76 in SSE 4.6 mph 4.6 mph 37% 0.00 in 345.0 W/m2
16:37 89.1 °F 60.2 °F 29.76 in SSE 9.2 mph 9.2 mph 38% 0.00 in 446.0 W/m2
16:42 89.1 °F 59.4 °F 29.76 in SSE 8.1 mph 8.1 mph 37% 0.00 in 246.0 W/m2
16:47 88.9 °F 58.5 °F 29.75 in SSE 6.9 mph 6.9 mph 36% 0.00 in 206.0 W/m2
16:52 88.8 °F 59.2 °F 29.75 in SSE 9.2 mph 9.2 mph 37% 0.00 in 156.0 W/m2
16:57 88.4 °F 59.6 °F 29.75 in South 5.0 mph 5.0 mph 38% 0.00 in 128.0 W/m2
17:02 88.3 °F 58.7 °F 29.75 in SSE 6.9 mph 6.9 mph 37% 0.00 in 104.0 W/m2
17:07 88.1 °F 58.6 °F 29.75 in South 6.9 mph 6.9 mph 37% 0.00 in 81.0 W/m2
17:12 87.9 °F 58.4 °F 29.75 in South 6.0 mph 6.0 mph 37% 0.00 in 62.0 W/m2
17:17 87.5 °F 58.8 °F 29.74 in SSE 6.9 mph 6.9 mph 38% 0.00 in 58.0 W/m2
17:22 87.5 °F 58.8 °F 29.74 in South 4.6 mph 4.6 mph 38% 0.00 in 76.0 W/m2
17:27 87.6 °F 58.9 °F 29.74 in SSW 3.5 mph   38% 0.00 in 113.0 W/m2
17:32 87.7 °F 60.4 °F 29.74 in SW 11.5 mph 11.5 mph 40% 0.00 in 120.0 W/m2
17:37 86.8 °F 62.9 °F 29.74 in WSW 13.8 mph 13.8 mph 45% 0.00 in 88.0 W/m2
17:42 85.6 °F 64.2 °F 29.75 in WSW 8.1 mph 8.1 mph 49% 0.00 in 76.0 W/m2
17:47 84.4 °F 64.9 °F 29.74 in SW 12.7 mph 12.7 mph 52% 0.00 in 81.0 W/m2
17:52 83.0 °F 65.2 °F 29.75 in WNW 11.5 mph 11.5 mph 55% 0.00 in 84.0 W/m2
17:57 82.0 °F 65.8 °F 29.75 in WNW 13.8 mph 13.8 mph 58% 0.00 in 84.0 W/m2
18:02 81.4 °F 66.2 °F 29.75 in West 11.5 mph 11.5 mph 60% 0.00 in 81.0 W/m2
18:07 80.6 °F 66.4 °F 29.75 in WNW 15.0 mph 15.0 mph 62% 0.00 in 76.0 W/m2
18:12 80.2 °F 66.5 °F 29.75 in WSW 11.5 mph 11.5 mph 63% 0.00 in 72.0 W/m2
18:17 79.7 °F 66.4 °F 29.75 in SW 13.8 mph 13.8 mph 64% 0.00 in 63.0 W/m2
18:22 79.4 °F 66.6 °F 29.75 in WNW 6.0 mph 6.0 mph 65% 0.00 in 56.0 W/m2
18:27 79.3 °F 66.5 °F 29.75 in WNW 5.8 mph 5.8 mph 65% 0.00 in 53.0 W/m2
18:32 79.2 °F 66.4 °F 29.75 in West 11.0 mph 11.0 mph 65% 0.00 in 49.0 W/m2
18:37 79.1 °F 66.3 °F 29.75 in WSW 8.1 mph 8.1 mph 65% 0.00 in 47.0 W/m2
18:42 78.9 °F 66.1 °F 29.75 in West 5.8 mph 5.8 mph 65% 0.00 in 53.0 W/m2
18:47 78.8 °F 66.5 °F 29.74 in West 3.5 mph   66% 0.00 in 65.0 W/m2
18:52 78.6 °F 66.3 °F 29.74 in WSW 5.0 mph 5.0 mph 66% 0.00 in 63.0 W/m2
18:57 78.4 °F 66.1 °F 29.74 in North 4.6 mph 4.6 mph 66% 0.00 in 53.0 W/m2
19:02 78.2 °F 66.3 °F 29.74 in SW 3.5 mph 3.5 mph 67% 0.00 in 44.0 W/m2
19:07 78.0 °F 66.2 °F 29.74 in West 3.5 mph 3.5 mph 67% 0.00 in 33.0 W/m2
19:12 77.7 °F 65.9 °F 29.73 in Calm     67% 0.00 in 25.0 W/m2
19:17 77.6 °F 66.2 °F 29.73 in Calm     68% 0.00 in 21.0 W/m2
19:22 77.5 °F 66.1 °F 29.73 in Calm     68% 0.00 in 16.0 W/m2
19:27 77.5 °F 66.1 °F 29.73 in Calm     68% 0.00 in 14.0 W/m2
19:32 77.4 °F 66.0 °F 29.74 in Calm     68% 0.00 in 12.0 W/m2
19:37 77.4 °F 66.0 °F 29.74 in Calm   0.4 mph 68% 0.00 in 9.0 W/m2
19:42 77.4 °F 66.0 °F 29.74 in Calm     68% 0.00 in 7.0 W/m2
19:47 77.3 °F 66.3 °F 29.74 in Calm     69% 0.00 in 7.0 W/m2
19:52 77.1 °F 66.1 °F 29.74 in Calm     69% 0.00 in 0.0 W/m2
19:57 76.9 °F 66.4 °F 29.74 in Calm     70% 0.00 in 0.0 W/m2
20:02 76.7 °F 66.2 °F 29.74 in Calm     70% 0.00 in 0.0 W/m2
20:07 76.5 °F 66.0 °F 29.74 in Calm     70% 0.00 in 0.0 W/m2
20:12 76.3 °F 66.2 °F 29.74 in Calm     71% 0.00 in 0.0 W/m2
20:17 76.1 °F 66.0 °F 29.74 in Calm     71% 0.00 in 0.0 W/m2
20:22 75.9 °F 66.2 °F 29.74 in Calm     72% 0.00 in 0.0 W/m2
20:27 75.6 °F 65.9 °F 29.74 in Calm     72% 0.00 in 0.0 W/m2
20:32 75.3 °F 66.4 °F 29.74 in Calm     74% 0.00 in 0.0 W/m2
20:37 74.8 °F 66.0 °F 29.74 in Calm     74% 0.00 in 0.0 W/m2
20:42 74.6 °F 66.1 °F 29.74 in Calm     75% 0.00 in 0.0 W/m2
20:47 74.3 °F 65.9 °F 29.74 in Calm     75% 0.00 in 0.0 W/m2
20:52 74.1 °F 65.7 °F 29.75 in Calm     75% 0.00 in 0.0 W/m2
20:57 74.0 °F 65.6 °F 29.75 in Calm     75% 0.00 in 0.0 W/m2
21:02 74.0 °F 66.0 °F 29.75 in Calm     76% 0.00 in 0.0 W/m2
21:07 74.0 °F 66.0 °F 29.76 in Calm     76% 0.00 in 0.0 W/m2
21:12 74.3 °F 66.2 °F 29.78 in SW 7.0 mph 7.0 mph 76% 0.00 in 0.0 W/m2
21:17 75.2 °F 66.3 °F 29.79 in WSW 9.0 mph 9.0 mph 74% 0.00 in 0.0 W/m2
21:22 75.6 °F 66.7 °F 29.79 in WSW 6.9 mph 6.9 mph 74% 0.00 in 0.0 W/m2
21:27 75.7 °F 66.4 °F 29.79 in WSW 5.8 mph 5.8 mph 73% 0.00 in 0.0 W/m2
21:32 75.6 °F 66.3 °F 29.79 in WSW 9.2 mph 9.2 mph 73% 0.00 in 0.0 W/m2
21:37 75.7 °F 66.4 °F 29.79 in WSW 9.2 mph 9.2 mph 73% 0.00 in 0.0 W/m2
21:42 75.6 °F 66.7 °F 29.79 in SW 7.0 mph 7.0 mph 74% 0.00 in 0.0 W/m2
21:47 75.4 °F 66.9 °F 29.80 in WSW 11.5 mph 11.5 mph 75% 0.00 in 0.0 W/m2
21:52 74.9 °F 67.2 °F 29.80 in WSW 13.8 mph 13.8 mph 77% 0.00 in 0.0 W/m2
21:57 74.6 °F 67.3 °F 29.80 in WSW 5.8 mph   78% 0.00 in 0.0 W/m2
22:02 74.1 °F 67.5 °F 29.80 in WSW 8.1 mph 8.1 mph 80% 0.00 in 0.0 W/m2
22:07 73.6 °F 67.8 °F 29.80 in SW 7.0 mph 7.0 mph 82% 0.00 in 0.0 W/m2
22:12 73.1 °F 67.6 °F 29.80 in SW 13.8 mph 13.8 mph 83% 0.00 in 0.0 W/m2
22:17 72.9 °F 67.8 °F 29.80 in WSW 10.4 mph 10.4 mph 84% 0.00 in 0.0 W/m2
22:22 72.6 °F 67.8 °F 29.80 in SW 5.0 mph 5.0 mph 85% 0.00 in 0.0 W/m2
22:28 72.5 °F 67.7 °F 29.80 in WSW 5.8 mph 5.8 mph 85% 0.00 in 0.0 W/m2
22:33 72.4 °F 67.6 °F 29.80 in SW 6.9 mph 6.9 mph 85% 0.00 in 0.0 W/m2
22:38 72.2 °F 67.4 °F 29.79 in WSW 8.1 mph 8.1 mph 85% 0.00 in 0.0 W/m2
22:43 72.1 °F 67.3 °F 29.79 in WSW 5.8 mph 5.8 mph 85% 0.00 in 0.0 W/m2
22:48 72.0 °F 67.6 °F 29.79 in Calm   1.0 mph 86% 0.00 in 0.0 W/m2
22:53 71.9 °F 67.5 °F 29.79 in SSW 6.9 mph 6.9 mph 86% 0.00 in 0.0 W/m2
22:58 71.8 °F 67.4 °F 29.79 in SW 3.5 mph 3.5 mph 86% 0.00 in 0.0 W/m2
23:03 71.7 °F 67.3 °F 29.78 in SW 2.3 mph   86% 0.00 in 0.0 W/m2
23:08 71.6 °F 67.2 °F 29.78 in SSW 5.8 mph 5.8 mph 86% 0.00 in 0.0 W/m2
23:13 71.5 °F 67.1 °F 29.78 in SW 3.5 mph 3.5 mph 86% 0.00 in 0.0 W/m2
23:18 71.5 °F 67.1 °F 29.78 in Calm     86% 0.00 in 0.0 W/m2
23:23 71.4 °F 67.3 °F 29.78 in SW 5.8 mph 5.8 mph 87% 0.00 in 0.0 W/m2
23:28 71.3 °F 66.9 °F 29.79 in SSW 1.0 mph   86% 0.00 in 0.0 W/m2
23:33 71.3 °F 66.9 °F 29.78 in SW 4.6 mph 4.6 mph 86% 0.00 in 0.0 W/m2
23:38 71.1 °F 67.0 °F 29.78 in SSW 5.8 mph   87% 0.00 in 0.0 W/m2
23:43 71.0 °F 66.9 °F 29.78 in Calm     87% 0.00 in 0.0 W/m2
23:48 70.9 °F 66.8 °F 29.77 in Calm     87% 0.00 in 0.0 W/m2
23:53 70.7 °F 67.0 °F 29.77 in Calm     88% 0.00 in 0.0 W/m2
23:58 70.6 °F 66.9 °F 29.77 in Calm     88% 0.00 in 0.0 W/m2
Bourbonnais, Illinois, USA
Compliments of Weather Underground - 4 mb